Time;durP1;ratioP1;P1;durP2;ratioP2;P2;SDS_P1;SDS_P2;PMS_P1;PMS_P2;Temp;Humidity;BMP_temperature;BMP_pressure;BME280_temperature;BME280_humidity;BME280_pressure;Samples;Min_cycle;Max_cycle;Signal;HPM_P1;HPM_P2
2022/07/10 00:00:41;;;;;;;15.10;1.80;;;14.10;99.90;;;;;;4949022;28;212826;-79
2022/07/10 00:03:07;;;;;;;11.25;1.63;;;14.10;99.90;;;;;;4991014;28;20057;-79
2022/07/10 00:05:35;;;;;;;10.98;1.30;;;14.10;99.90;;;;;;4937285;28;219696;-78
2022/07/10 00:08:01;;;;;;;11.32;1.77;;;14.10;99.90;;;;;;4976752;28;20050;-79
2022/07/10 00:10:28;;;;;;;11.93;1.67;;;14.10;99.90;;;;;;4969831;28;249441;-77
2022/07/10 00:12:55;;;;;;;14.60;2.00;;;14.10;99.90;;;;;;4976932;28;20050;-79
2022/07/10 00:15:21;;;;;;;10.77;1.60;;;14.10;99.90;;;;;;4972438;28;206573;-79
2022/07/10 00:17:48;;;;;;;13.23;1.83;;;14.00;99.90;;;;;;4993765;28;20054;-79
2022/07/10 00:20:15;;;;;;;12.23;2.08;;;13.90;99.90;;;;;;4998671;28;286509;-78
2022/07/10 00:22:42;;;;;;;9.55;1.40;;;13.90;99.90;;;;;;4942999;28;203235;-78
2022/07/10 00:25:10;;;;;;;9.63;1.63;;;13.90;99.90;;;;;;5000517;28;228883;-78
2022/07/10 00:27:37;;;;;;;13.05;2.00;;;13.80;99.90;;;;;;4942006;28;205805;-79
2022/07/10 00:30:03;;;;;;;12.30;1.60;;;13.90;99.90;;;;;;5011162;28;85127;-79
2022/07/10 00:32:30;;;;;;;13.95;1.85;;;13.80;99.90;;;;;;4948517;28;191262;-79
2022/07/10 00:34:56;;;;;;;12.57;1.63;;;13.80;99.90;;;;;;5010289;28;264609;-78
2022/07/10 00:37:22;;;;;;;14.05;2.00;;;13.80;99.90;;;;;;4995998;28;167665;-78
2022/07/10 00:39:49;;;;;;;13.18;1.70;;;13.90;99.90;;;;;;4990258;28;133286;-79
2022/07/10 00:42:16;;;;;;;11.73;1.85;;;13.80;99.90;;;;;;4954448;28;216434;-79
2022/07/10 00:44:43;;;;;;;11.20;1.60;;;13.90;99.90;;;;;;5007177;28;142935;-78
2022/07/10 00:47:10;;;;;;;14.77;1.77;;;13.90;99.90;;;;;;4951158;28;210824;-79
2022/07/10 00:49:38;;;;;;;12.63;1.73;;;13.90;99.90;;;;;;5023796;28;55316;-78
2022/07/10 00:52:11;;;;;;;18.02;1.85;;;13.90;99.90;;;;;;4983496;28;229803;-78
2022/07/10 00:54:41;;;;;;;13.55;1.70;;;13.90;99.90;;;;;;5006659;28;230640;-78
2022/07/10 00:57:08;;;;;;;13.10;2.00;;;13.80;99.90;;;;;;4955825;28;203841;-78
2022/07/10 00:59:35;;;;;;;17.65;1.80;;;13.80;99.90;;;;;;5005566;28;33810;-78
2022/07/10 01:02:04;;;;;;;14.25;1.92;;;13.70;99.90;;;;;;4988472;28;167070;-79
2022/07/10 01:04:31;;;;;;;10.77;1.63;;;13.70;99.90;;;;;;4990504;28;255759;-78
2022/07/10 01:06:58;;;;;;;10.82;1.55;;;13.70;99.90;;;;;;4965867;28;207861;-78
2022/07/10 01:09:25;;;;;;;13.60;1.70;;;13.70;99.90;;;;;;5004801;28;264936;-78
2022/07/10 01:11:51;;;;;;;12.57;1.83;;;13.80;99.90;;;;;;4964873;28;205098;-78
2022/07/10 01:14:19;;;;;;;15.27;1.90;;;13.80;99.90;;;;;;5002930;28;265812;-79
2022/07/10 01:16:45;;;;;;;11.05;1.75;;;13.80;99.90;;;;;;4983007;28;204931;-79
2022/07/10 01:19:11;;;;;;;12.23;1.60;;;13.80;99.90;;;;;;4998616;28;267456;-78
2022/07/10 01:21:38;;;;;;;14.15;2.00;;;13.80;99.90;;;;;;4969113;28;208727;-78
2022/07/10 01:24:06;;;;;;;11.60;1.77;;;13.80;99.90;;;;;;5019240;28;20064;-78
2022/07/10 01:26:33;;;;;;;12.65;1.98;;;13.80;99.90;;;;;;4960956;28;266014;-79
2022/07/10 01:29:03;;;;;;;17.45;2.05;;;13.80;99.90;;;;;;5016962;28;20061;-79
2022/07/10 01:31:29;;;;;;;12.93;1.95;;;13.70;99.90;;;;;;4959870;28;207253;-78
2022/07/10 01:33:56;;;;;;;13.52;2.20;;;13.70;99.90;;;;;;5012338;28;20057;-78
2022/07/10 01:36:23;;;;;;;14.75;1.65;;;13.70;99.90;;;;;;4972964;28;206409;-79
2022/07/10 01:38:53;;;;;;;14.27;1.63;;;13.60;99.90;;;;;;5002730;28;20054;-79
2022/07/10 01:41:19;;;;;;;16.80;2.42;;;13.50;99.90;;;;;;4960599;28;225760;-79
2022/07/10 01:43:47;;;;;;;10.30;1.58;;;13.50;99.90;;;;;;5045603;28;20043;-77
2022/07/10 01:46:14;;;;;;;15.18;1.88;;;13.40;99.90;;;;;;4982481;28;234925;-78
2022/07/10 01:48:41;;;;;;;12.07;1.85;;;13.40;99.90;;;;;;5035699;28;20058;-77
2022/07/10 01:51:09;;;;;;;12.00;1.85;;;13.30;99.90;;;;;;4974594;28;140849;-78
2022/07/10 01:53:36;;;;;;;14.55;2.58;;;13.30;99.90;;;;;;4990545;28;20050;-78
2022/07/10 01:56:05;;;;;;;15.40;1.95;;;13.30;99.90;;;;;;4973440;28;209256;-78
2022/07/10 01:58:31;;;;;;;14.27;1.83;;;13.30;99.90;;;;;;4997205;28;20164;-78
2022/07/10 02:00:57;;;;;;;16.60;2.40;;;13.20;99.90;;;;;;4952383;28;205648;-78
2022/07/10 02:06:08;;;;;;;11.32;1.52;;;13.10;99.90;;;;;;4946993;28;208337;-78
2022/07/10 02:08:34;;;;;;;14.18;1.77;;;13.10;99.90;;;;;;5005107;28;20695;-79
2022/07/10 02:11:00;;;;;;;12.65;1.75;;;13.10;99.90;;;;;;4971431;28;206193;-78
2022/07/10 02:13:27;;;;;;;14.32;1.77;;;13.10;99.90;;;;;;5025686;28;20058;-78
2022/07/10 02:15:56;;;;;;;11.10;1.70;;;13.10;99.90;;;;;;4948980;28;198153;-78
2022/07/10 02:18:23;;;;;;;10.02;1.77;;;13.10;99.90;;;;;;5011436;28;20062;-78
2022/07/10 02:20:50;;;;;;;12.18;1.70;;;13.00;99.90;;;;;;4959628;28;265482;-76
2022/07/10 02:23:16;;;;;;;12.18;1.80;;;13.00;99.90;;;;;;5007663;28;20049;-79
2022/07/10 02:25:43;;;;;;;15.75;1.77;;;13.00;99.90;;;;;;4935089;28;232777;-77
2022/07/10 02:28:09;;;;;;;11.98;1.60;;;12.90;99.90;;;;;;4961883;28;20049;-77
2022/07/10 02:30:35;;;;;;;13.10;1.58;;;12.90;99.90;;;;;;4939359;28;205905;-77
2022/07/10 02:33:02;;;;;;;13.52;1.48;;;12.90;99.90;;;;;;5011766;28;20045;-77
2022/07/10 02:35:28;;;;;;;11.95;1.50;;;12.80;99.90;;;;;;4949828;28;216360;-77
2022/07/10 02:37:54;;;;;;;11.05;1.88;;;12.80;99.90;;;;;;4992207;28;20145;-76
2022/07/10 02:40:21;;;;;;;15.00;1.88;;;12.80;99.90;;;;;;4967495;28;162650;-78
2022/07/10 02:42:47;;;;;;;11.60;1.50;;;12.80;99.90;;;;;;4998555;28;20076;-77
2022/07/10 02:45:13;;;;;;;12.95;2.20;;;12.80;99.90;;;;;;5002669;28;69853;-77
2022/07/10 02:47:39;;;;;;;13.80;1.95;;;12.70;99.90;;;;;;4933958;28;205794;-76
2022/07/10 02:50:06;;;;;;;11.85;1.40;;;12.70;99.90;;;;;;4990326;28;191896;-77
2022/07/10 02:52:32;;;;;;;8.75;1.63;;;12.70;99.90;;;;;;4949928;28;201697;-78
2022/07/10 02:54:58;;;;;;;15.55;1.92;;;12.70;99.90;;;;;;4998085;28;146219;-77
2022/07/10 02:57:24;;;;;;;11.82;1.55;;;12.70;99.90;;;;;;4961076;28;209828;-77
2022/07/10 02:59:51;;;;;;;13.77;1.42;;;12.70;99.90;;;;;;4991436;28;148070;-77
2022/07/10 03:02:17;;;;;;;13.52;1.70;;;12.70;99.90;;;;;;4933181;28;221062;-77
2022/07/10 03:04:43;;;;;;;10.02;1.30;;;12.70;99.90;;;;;;4980620;28;178044;-78
2022/07/10 03:07:09;;;;;;;10.95;1.52;;;12.70;99.90;;;;;;4987024;28;121515;-77
2022/07/10 03:09:35;;;;;;;13.50;1.90;;;12.60;99.90;;;;;;4973505;28;210987;-77
2022/07/10 03:12:02;;;;;;;11.23;1.70;;;12.60;99.90;;;;;;4944639;28;205317;-77
2022/07/10 03:14:28;;;;;;;10.98;1.70;;;12.60;99.90;;;;;;4995603;28;266179;-77
2022/07/10 03:16:54;;;;;;;10.43;1.48;;;12.60;99.90;;;;;;4966227;28;210047;-77
2022/07/10 03:19:20;;;;;;;15.25;1.88;;;12.70;99.90;;;;;;4991736;28;266409;-77
2022/07/10 03:21:46;;;;;;;12.40;1.50;;;12.70;99.90;;;;;;4956456;28;201182;-78
2022/07/10 03:24:12;;;;;;;9.35;1.55;;;12.70;99.90;;;;;;4993287;28;271116;-78
2022/07/10 03:26:39;;;;;;;11.40;1.42;;;12.80;99.90;;;;;;4961162;28;207559;-77
2022/07/10 03:29:05;;;;;;;11.35;1.73;;;12.80;99.90;;;;;;5006215;28;20423;-78
2022/07/10 03:31:31;;;;;;;12.23;1.90;;;12.80;99.90;;;;;;4939294;28;212897;-77
2022/07/10 03:33:57;;;;;;;10.98;1.67;;;12.90;99.90;;;;;;5027267;28;20065;-77
2022/07/10 03:36:24;;;;;;;16.02;1.90;;;12.90;99.90;;;;;;4954905;28;236159;-77
2022/07/10 03:38:50;;;;;;;12.60;1.80;;;13.00;99.90;;;;;;5008189;28;20053;-77
2022/07/10 03:41:16;;;;;;;12.27;1.70;;;13.00;99.90;;;;;;4957470;28;207155;-77
2022/07/10 03:43:42;;;;;;;15.55;1.63;;;13.10;99.90;;;;;;5000483;28;20051;-77
2022/07/10 03:46:08;;;;;;;11.88;1.88;;;13.10;99.90;;;;;;4942555;28;276262;-77
2022/07/10 03:48:34;;;;;;;14.88;1.58;;;13.10;99.90;;;;;;5002903;28;20538;-78
2022/07/10 03:51:01;;;;;;;14.25;1.92;;;13.20;99.90;;;;;;4934393;28;210922;-77
2022/07/10 03:53:28;;;;;;;12.32;1.77;;;13.20;99.90;;;;;;5005689;28;20118;-78
2022/07/10 03:55:54;;;;;;;10.25;1.40;;;13.20;99.90;;;;;;4947625;28;213764;-77
2022/07/10 03:58:20;;;;;;;14.82;1.85;;;13.30;99.90;;;;;;4989241;28;20508;-77
2022/07/10 04:00:46;;;;;;;11.93;1.60;;;13.30;99.90;;;;;;4950782;28;209200;-77
2022/07/10 04:03:13;;;;;;;9.77;1.52;;;13.40;99.90;;;;;;4999091;28;20408;-77
2022/07/10 04:05:39;;;;;;;9.80;1.60;;;13.40;99.90;;;;;;4942809;28;206981;-77
2022/07/10 04:08:06;;;;;;;12.15;1.73;;;13.50;99.90;;;;;;4998823;28;20385;-77
2022/07/10 04:10:32;;;;;;;11.75;1.75;;;13.50;99.90;;;;;;4939828;28;209617;-77
2022/07/10 04:12:59;;;;;;;13.88;1.75;;;13.50;99.90;;;;;;5005753;28;20072;-77
2022/07/10 04:15:25;;;;;;;12.40;1.65;;;13.50;99.90;;;;;;4965132;28;210049;-78
2022/07/10 04:17:52;;;;;;;10.10;1.33;;;13.60;99.90;;;;;;4988030;28;20054;-77
2022/07/10 04:20:19;;;;;;;12.93;1.80;;;13.60;99.90;;;;;;4981668;28;152352;-77
2022/07/10 04:22:45;;;;;;;9.65;1.35;;;13.60;99.90;;;;;;4948529;28;204880;-78
2022/07/10 04:25:12;;;;;;;13.25;1.45;;;13.70;99.90;;;;;;4989687;28;20053;-77
2022/07/10 04:27:38;;;;;;;13.32;1.80;;;13.70;99.90;;;;;;4955589;28;203074;-77
2022/07/10 04:30:05;;;;;;;11.35;1.63;;;13.70;99.90;;;;;;4987621;28;242991;-77
2022/07/10 04:32:32;;;;;;;9.68;1.50;;;13.70;99.90;;;;;;4938810;28;203419;-77
2022/07/10 04:34:58;;;;;;;12.98;1.50;;;13.80;99.90;;;;;;4999145;28;181519;-78
2022/07/10 04:37:25;;;;;;;13.77;1.65;;;13.90;99.90;;;;;;4954715;28;206241;-77
2022/07/10 04:39:51;;;;;;;12.75;2.03;;;13.90;99.90;;;;;;4998545;28;86643;-77
2022/07/10 04:42:17;;;;;;;13.32;1.75;;;13.90;99.90;;;;;;4964999;28;204160;-77
2022/07/10 04:44:43;;;;;;;12.30;1.58;;;14.00;99.90;;;;;;5014850;28;120267;-78
2022/07/10 04:47:09;;;;;;;12.27;1.60;;;14.00;99.90;;;;;;4973661;28;149335;-77
2022/07/10 04:49:35;;;;;;;10.82;1.75;;;14.10;99.90;;;;;;5004850;28;253835;-77
2022/07/10 04:52:02;;;;;;;13.02;1.85;;;14.10;99.90;;;;;;4966016;28;208692;-77
2022/07/10 04:54:28;;;;;;;9.45;1.58;;;14.20;99.90;;;;;;4998980;28;262038;-77
2022/07/10 04:56:54;;;;;;;14.45;2.10;;;14.20;99.90;;;;;;4971477;28;205899;-76
2022/07/10 04:59:20;;;;;;;13.15;1.73;;;14.30;99.90;;;;;;5008800;28;145984;-78
2022/07/10 05:01:46;;;;;;;9.85;1.55;;;14.30;99.90;;;;;;4976087;28;206070;-78
2022/07/10 05:04:13;;;;;;;12.20;1.90;;;14.30;99.90;;;;;;4981445;28;260562;-77
2022/07/10 05:06:39;;;;;;;17.05;1.90;;;14.30;99.90;;;;;;4951281;28;215797;-77
2022/07/10 05:09:05;;;;;;;13.00;1.80;;;14.40;99.90;;;;;;5017545;28;20045;-77
2022/07/10 05:11:31;;;;;;;14.68;2.35;;;14.40;99.90;;;;;;4927066;28;191223;-77
2022/07/10 05:13:58;;;;;;;14.00;1.95;;;14.40;99.90;;;;;;5002580;28;20054;-78
2022/07/10 05:16:24;;;;;;;13.93;1.73;;;14.50;99.90;;;;;;4968442;28;275067;-78
2022/07/10 05:18:50;;;;;;;15.05;1.90;;;14.50;99.90;;;;;;5005118;28;20438;-78
2022/07/10 05:21:17;;;;;;;12.98;1.95;;;14.50;99.90;;;;;;4961064;28;207454;-78
2022/07/10 05:23:43;;;;;;;13.05;2.20;;;14.60;99.90;;;;;;5013598;28;20050;-77
2022/07/10 05:26:09;;;;;;;13.80;2.08;;;14.50;99.90;;;;;;4967243;28;224979;-78
2022/07/10 05:28:36;;;;;;;14.27;2.80;;;14.60;99.90;;;;;;5009512;28;20057;-79
2022/07/10 05:31:02;;;;;;;14.35;2.22;;;14.60;99.90;;;;;;4954198;28;207367;-79
2022/07/10 05:33:28;;;;;;;12.73;2.33;;;14.70;99.90;;;;;;5007488;28;20442;-77
2022/07/10 05:35:55;;;;;;;15.63;2.20;;;14.60;99.90;;;;;;4958368;28;193286;-78
2022/07/10 05:38:22;;;;;;;13.23;2.30;;;14.70;99.90;;;;;;4992142;28;20050;-77
2022/07/10 05:40:48;;;;;;;15.88;2.25;;;14.70;99.90;;;;;;4949042;28;249451;-79
2022/07/10 05:43:15;;;;;;;13.32;1.90;;;14.70;99.90;;;;;;5013595;28;20065;-79
2022/07/10 05:45:41;;;;;;;17.73;2.45;;;14.80;99.90;;;;;;4947112;28;400869;-77
2022/07/10 05:48:07;;;;;;;14.82;2.05;;;14.80;99.90;;;;;;5003217;28;20042;-77
2022/07/10 05:50:36;;;;;;;12.77;2.22;;;14.90;99.90;;;;;;4953249;28;276880;-78
2022/07/10 05:53:02;;;;;;;12.45;1.83;;;15.00;99.90;;;;;;4996924;28;20058;-77
2022/07/10 05:55:28;;;;;;;15.80;2.25;;;15.10;99.90;;;;;;4966903;28;206915;-77
2022/07/10 05:57:55;;;;;;;14.95;2.30;;;15.10;99.90;;;;;;4994321;28;20046;-78
2022/07/10 06:00:21;;;;;;;14.80;2.17;;;15.10;99.90;;;;;;4955114;28;189613;-79
2022/07/10 06:02:48;;;;;;;15.02;2.08;;;15.20;99.90;;;;;;4989643;28;20050;-78
2022/07/10 06:05:14;;;;;;;13.52;1.80;;;15.20;99.90;;;;;;4999175;28;256053;-78
2022/07/10 06:07:40;;;;;;;11.95;1.63;;;15.20;99.90;;;;;;4947390;28;194011;-78
2022/07/10 06:10:07;;;;;;;13.75;2.00;;;15.20;99.90;;;;;;5005564;28;20061;-77
2022/07/10 06:12:33;;;;;;;12.77;1.75;;;15.30;99.90;;;;;;4946902;28;207903;-77
2022/07/10 06:14:59;;;;;;;11.80;1.90;;;15.30;99.90;;;;;;4980230;28;83979;-78
2022/07/10 06:17:25;;;;;;;15.30;1.73;;;15.40;99.90;;;;;;4977956;28;205302;-77
2022/07/10 06:19:51;;;;;;;14.55;1.80;;;15.30;99.90;;;;;;4997962;28;130668;-77
2022/07/10 06:22:33;;;;;;;17.58;2.30;;;15.30;99.90;;;;;;4968804;28;203036;-79
2022/07/10 06:25:03;;;;;;;12.68;1.98;;;15.30;99.90;;;;;;4993075;28;178255;-77
2022/07/10 06:27:29;;;;;;;14.50;1.90;;;15.30;99.90;;;;;;4958730;28;213712;-78
2022/07/10 06:29:56;;;;;;;11.18;1.80;;;15.30;99.90;;;;;;5000035;28;159579;-77
2022/07/10 06:32:24;;;;;;;10.88;1.77;;;15.20;99.90;;;;;;4970478;28;205848;-76
2022/07/10 06:34:51;;;;;;;10.52;1.60;;;15.20;99.90;;;;;;5003270;28;46243;-77
2022/07/10 06:37:18;;;;;;;9.77;1.52;;;15.20;99.90;;;;;;4935700;28;207815;-78
2022/07/10 06:39:46;;;;;;;11.35;1.80;;;15.30;99.90;;;;;;4993030;28;223380;-77
2022/07/10 06:42:12;;;;;;;14.98;2.05;;;15.40;99.90;;;;;;4952819;28;215204;-76
2022/07/10 06:44:39;;;;;;;11.13;1.60;;;15.40;99.90;;;;;;4979099;28;207051;-78
2022/07/10 06:49:52;;;;;;;13.82;1.60;;;15.50;99.90;;;;;;4993411;28;232318;-77
2022/07/10 06:52:19;;;;;;;11.52;1.63;;;15.60;99.90;;;;;;4967303;28;195187;-77
2022/07/10 06:54:46;;;;;;;10.68;1.63;;;15.70;99.90;;;;;;4997596;28;119365;-77
2022/07/10 06:57:12;;;;;;;7.50;1.33;;;15.70;99.90;;;;;;4937114;28;208971;-77
2022/07/10 06:59:38;;;;;;;10.50;1.40;;;15.80;99.90;;;;;;4998155;28;155606;-77
2022/07/10 07:02:06;;;;;;;8.05;1.20;;;15.90;99.90;;;;;;4972752;28;209507;-77
2022/07/10 07:04:32;;;;;;;6.05;1.02;;;16.00;99.90;;;;;;5012940;28;124418;-78
2022/07/10 07:06:58;;;;;;;11.90;1.58;;;16.10;99.90;;;;;;4964218;28;218947;-78
2022/07/10 07:09:24;;;;;;;8.00;1.23;;;16.20;99.90;;;;;;4996991;28;274698;-78
2022/07/10 07:11:50;;;;;;;10.70;1.38;;;16.20;99.90;;;;;;4973124;28;192207;-77
2022/07/10 07:14:17;;;;;;;5.90;1.10;;;16.20;99.90;;;;;;4997277;28;263424;-78
2022/07/10 07:16:45;;;;;;;9.15;1.27;;;16.00;99.90;;;;;;4982782;28;191331;-77
2022/07/10 07:19:17;;;;;;;10.10;1.38;;;15.90;99.90;;;;;;4987720;28;267593;-79
2022/07/10 07:24:29;;;;;;;7.72;1.40;;;15.80;99.90;;;;;;5011778;28;276038;-77
2022/07/10 07:26:55;;;;;;;9.88;1.38;;;15.60;99.90;;;;;;4984847;28;208408;-77
2022/07/10 07:29:21;;;;;;;8.05;1.15;;;15.50;99.90;;;;;;4981058;28;20053;-78
2022/07/10 07:31:47;;;;;;;9.38;1.30;;;15.70;99.90;;;;;;4970167;28;228065;-77
2022/07/10 07:34:13;;;;;;;7.22;1.25;;;15.80;99.90;;;;;;4994091;28;249813;-77
2022/07/10 07:36:39;;;;;;;7.57;1.25;;;15.90;99.90;;;;;;4960668;28;211766;-76
2022/07/10 07:39:05;;;;;;;8.23;1.25;;;16.10;99.90;;;;;;5009358;28;20061;-78
2022/07/10 07:41:32;;;;;;;6.70;1.20;;;16.20;99.90;;;;;;4943552;28;219189;-77
2022/07/10 07:43:58;;;;;;;8.52;1.30;;;16.30;99.90;;;;;;5024234;28;20527;-78
2022/07/10 07:46:25;;;;;;;9.68;1.35;;;16.40;99.90;;;;;;4961541;28;264295;-78
2022/07/10 07:48:51;;;;;;;8.60;1.23;;;16.40;99.90;;;;;;5021265;28;20049;-77
2022/07/10 07:51:17;;;;;;;7.72;1.00;;;16.40;99.90;;;;;;4964021;28;206984;-79
2022/07/10 07:53:44;;;;;;;8.80;1.38;;;16.30;99.90;;;;;;5016779;28;20061;-80
2022/07/10 07:56:10;;;;;;;8.02;1.30;;;16.30;99.90;;;;;;4952122;28;255394;-77
2022/07/10 07:58:36;;;;;;;6.50;1.10;;;16.40;99.90;;;;;;5034076;28;20065;-78
2022/07/10 08:01:02;;;;;;;9.93;1.30;;;16.30;99.90;;;;;;4963755;28;255937;-77
2022/07/10 08:03:28;;;;;;;10.40;1.50;;;16.40;99.90;;;;;;5022463;28;20058;-78
2022/07/10 08:05:54;;;;;;;8.75;1.35;;;16.20;99.90;;;;;;4957433;28;256939;-77
2022/07/10 08:08:21;;;;;;;11.10;1.30;;;16.20;99.90;;;;;;5023087;28;20410;-78
2022/07/10 08:10:47;;;;;;;10.38;1.40;;;16.30;99.90;;;;;;4972708;28;260832;-78
2022/07/10 08:13:13;;;;;;;14.02;1.50;;;16.40;99.90;;;;;;5022299;28;20058;-77
2022/07/10 08:15:39;;;;;;;10.88;1.42;;;16.40;99.90;;;;;;4965132;28;254873;-78
2022/07/10 08:18:07;;;;;;;9.57;1.23;;;16.50;99.90;;;;;;5026503;28;20041;-77
2022/07/10 08:20:33;;;;;;;8.67;1.30;;;16.50;99.90;;;;;;4967089;28;215005;-78
2022/07/10 08:22:59;;;;;;;8.65;1.45;;;16.60;99.90;;;;;;5020378;28;20054;-77
2022/07/10 08:25:29;;;;;;;8.55;1.30;;;16.60;99.90;;;;;;4967002;28;254033;-77
2022/07/10 08:28:03;;;;;;;8.50;1.27;;;16.60;99.90;;;;;;5035518;28;20042;-78
2022/07/10 08:30:29;;;;;;;8.43;1.10;;;16.60;99.90;;;;;;4961036;28;191316;-78
2022/07/10 08:32:56;;;;;;;9.85;1.67;;;16.50;99.90;;;;;;5024821;28;20054;-78
2022/07/10 08:35:22;;;;;;;9.32;1.23;;;16.60;99.90;;;;;;4972753;28;255768;-78
2022/07/10 08:37:48;;;;;;;7.80;1.33;;;16.60;99.90;;;;;;5027264;28;20743;-78
2022/07/10 08:40:16;;;;;;;6.22;1.25;;;16.50;99.90;;;;;;5006485;28;280651;-78
2022/07/10 08:42:46;;;;;;;8.98;1.27;;;16.60;99.90;;;;;;4956343;28;205090;-76
2022/07/10 08:45:13;;;;;;;12.10;1.40;;;16.50;99.90;;;;;;5010873;28;256703;-77
2022/07/10 08:47:41;;;;;;;11.23;1.77;;;16.50;99.90;;;;;;4960453;28;208451;-79
2022/07/10 08:50:22;;;;;;;9.30;1.50;;;16.50;99.90;;;;;;5013341;28;120198;-78
2022/07/10 08:52:58;;;;;;;10.38;1.80;;;16.40;99.90;;;;;;4970505;28;216519;-78
2022/07/10 08:55:25;;;;;;;10.02;1.50;;;16.30;99.90;;;;;;4957687;28;210253;-79
2022/07/10 08:57:53;;;;;;;8.57;1.35;;;16.10;99.90;;;;;;5025169;28;20061;-80
2022/07/10 09:00:20;;;;;;;8.25;1.30;;;15.90;99.90;;;;;;4982066;28;287917;-80
2022/07/10 09:02:46;;;;;;;7.32;1.33;;;15.80;99.90;;;;;;4992438;28;205094;-80
2022/07/10 09:05:12;;;;;;;8.23;1.67;;;15.50;99.90;;;;;;5009747;28;208695;-82
2022/07/10 09:07:41;;;;;;;7.15;1.40;;;15.50;99.90;;;;;;4939405;28;209439;-81
2022/07/10 09:10:10;;;;;;;8.00;1.40;;;15.60;99.90;;;;;;5016447;28;227948;-81
2022/07/10 09:12:50;;;;;;;10.43;1.85;;;15.60;99.90;;;;;;4990865;28;209882;-81
2022/07/10 09:15:18;;;;;;;6.25;1.50;;;15.70;99.90;;;;;;4998687;28;120246;-81
2022/07/10 09:18:01;;;;;;;6.93;1.50;;;15.70;99.90;;;;;;4989098;28;161556;-81
2022/07/10 09:20:32;;;;;;;10.00;1.95;;;15.60;99.90;;;;;;4961741;28;270692;-79
2022/07/10 09:23:15;;;;;;;8.23;1.60;;;15.80;99.90;;;;;;4988240;28;20037;-79
2022/07/10 09:25:42;;;;;;;7.28;1.40;;;15.80;99.90;;;;;;4960687;28;206256;-79
2022/07/10 09:28:08;;;;;;;11.52;1.90;;;15.60;99.90;;;;;;4998558;28;20056;-80
2022/07/10 09:30:39;;;;;;;9.38;1.70;;;15.60;99.90;;;;;;4965790;28;256563;-79
2022/07/10 09:33:27;;;;;;;7.10;1.45;;;15.70;99.90;;;;;;5042693;28;20046;-79
2022/07/10 09:36:04;;;;;;;9.63;1.83;;;15.70;99.90;;;;;;4943738;28;232761;-80
2022/07/10 09:38:43;;;;;;;7.10;1.42;;;15.70;99.90;;;;;;5004983;28;20057;-81
2022/07/10 09:41:28;;;;;;;8.02;1.58;;;15.70;99.90;;;;;;4961521;28;246914;-79
2022/07/10 09:44:04;;;;;;;8.27;1.50;;;15.70;99.90;;;;;;5009648;28;20069;-79
2022/07/10 09:46:35;;;;;;;7.47;1.70;;;15.80;99.90;;;;;;4991514;28;198991;-79
2022/07/10 09:49:07;;;;;;;8.00;1.70;;;15.80;99.90;;;;;;5016615;28;20290;-79
2022/07/10 09:51:36;;;;;;;9.05;1.85;;;15.90;99.90;;;;;;4955636;28;204769;-79
2022/07/10 09:54:05;;;;;;;9.93;1.70;;;16.00;99.90;;;;;;4989610;28;20054;-80
2022/07/10 09:56:38;;;;;;;7.82;1.73;;;16.00;99.90;;;;;;4938647;28;209061;-78
2022/07/10 09:59:08;;;;;;;9.75;1.90;;;16.20;99.90;;;;;;4972809;28;20041;-79
2022/07/10 10:01:36;;;;;;;9.73;1.83;;;16.60;99.90;;;;;;4918110;28;204308;-79
2022/07/10 10:04:03;;;;;;;8.75;2.15;;;16.60;99.90;;;;;;4977868;28;20058;-81
2022/07/10 10:06:31;;;;;;;9.77;1.80;;;16.50;99.90;;;;;;4924138;28;203018;-80
2022/07/10 10:09:10;;;;;;;8.25;1.77;;;16.30;99.90;;;;;;5010352;28;20499;-81
2022/07/10 10:11:39;;;;;;;11.43;2.00;;;16.10;99.90;;;;;;4932447;28;193801;-81
2022/07/10 10:14:07;;;;;;;9.48;2.03;;;16.20;99.90;;;;;;4998389;28;20507;-80
2022/07/10 10:16:35;;;;;;;7.95;1.75;;;16.00;99.90;;;;;;4945467;28;208772;-79
2022/07/10 10:21:48;;;;;;;8.93;2.13;;;15.90;99.90;;;;;;4934565;28;211585;-80
2022/07/10 10:24:14;;;;;;;10.82;2.13;;;16.20;99.90;;;;;;4969620;28;257818;-81
2022/07/10 10:26:43;;;;;;;13.70;2.42;;;16.20;99.90;;;;;;4945776;28;205916;-81
2022/07/10 10:29:10;;;;;;;9.90;1.98;;;16.10;99.90;;;;;;4991662;28;248028;-80
2022/07/10 10:31:38;;;;;;;13.00;2.15;;;16.20;99.90;;;;;;4934352;28;212398;-80
2022/07/10 10:34:04;;;;;;;10.93;2.05;;;16.30;99.90;;;;;;5003367;28;20057;-80
2022/07/10 10:36:45;;;;;;;10.80;2.30;;;16.10;99.90;;;;;;4945656;28;207931;-81
2022/07/10 10:39:13;;;;;;;13.93;2.35;;;16.20;99.90;;;;;;4989299;28;275198;-80
2022/07/10 10:41:53;;;;;;;9.60;2.10;;;16.30;99.90;;;;;;4930111;28;212284;-80
2022/07/10 10:44:23;;;;;;;10.80;2.20;;;16.50;99.90;;;;;;4973224;28;250467;-81
2022/07/10 10:47:16;;;;;;;13.73;2.23;;;16.70;99.90;;;;;;4949594;28;210818;-82
2022/07/10 10:49:59;;;;;;;11.40;2.05;;;16.80;99.90;;;;;;5002015;28;63868;-81
2022/07/10 10:52:26;;;;;;;10.10;2.20;;;17.00;99.90;;;;;;4957368;28;211301;-80
2022/07/10 10:55:04;;;;;;;12.25;2.13;;;17.00;99.90;;;;;;5004856;28;43372;-82
2022/07/10 10:57:36;;;;;;;10.23;2.08;;;17.30;99.90;;;;;;4952890;28;209507;-80
2022/07/10 11:00:07;;;;;;;8.13;1.90;;;17.50;99.90;;;;;;4990319;28;103399;-80
2022/07/10 11:02:37;;;;;;;9.55;2.03;;;17.60;99.90;;;;;;4946050;28;205370;-79
2022/07/10 11:05:12;;;;;;;11.63;2.10;;;17.80;99.90;;;;;;4992600;28;119302;-79
2022/07/10 11:07:54;;;;;;;10.98;1.80;;;17.90;99.90;;;;;;4965650;28;204834;-80
2022/07/10 11:10:41;;;;;;;11.63;2.03;;;18.10;99.90;;;;;;4950935;28;204841;-79
2022/07/10 11:13:11;;;;;;;11.80;2.20;;;18.40;99.90;;;;;;5008820;28;20045;-79
2022/07/10 11:15:42;;;;;;;10.60;1.77;;;18.70;99.90;;;;;;4944890;28;224950;-80
2022/07/10 11:18:14;;;;;;;9.38;1.92;;;19.00;99.90;;;;;;4975126;28;20050;-81
2022/07/10 11:20:53;;;;;;;7.75;2.08;;;19.10;99.90;;;;;;4970428;28;209242;-80
2022/07/10 11:23:57;;;;;;;9.93;1.67;;;18.90;99.90;;;;;;4994291;28;20064;-80
2022/07/10 11:26:44;;;;;;;9.63;1.80;;;18.60;99.90;;;;;;4977993;28;204789;-81
2022/07/10 11:29:10;;;;;;;7.78;1.60;;;18.40;99.90;;;;;;5002393;28;255828;-81
2022/07/10 11:31:44;;;;;;;8.18;1.60;;;18.30;99.90;;;;;;4979654;28;208715;-81
2022/07/10 11:34:10;;;;;;;9.50;1.40;;;18.50;99.90;;;;;;4989526;28;248749;-81
2022/07/10 11:36:39;;;;;;;10.15;1.60;;;18.50;99.90;;;;;;4969298;28;200500;-81
2022/07/10 11:39:07;;;;;;;8.65;1.60;;;18.70;99.90;;;;;;5019745;28;20064;-79
2022/07/10 11:41:41;;;;;;;6.72;1.60;;;18.60;99.90;;;;;;4946581;28;205583;-80
2022/07/10 11:44:13;;;;;;;9.15;1.70;;;18.50;99.90;;;;;;4986769;28;250691;-80
2022/07/10 11:46:42;;;;;;;7.55;1.55;;;18.30;99.90;;;;;;4948332;28;223328;-80
2022/07/10 11:49:08;;;;;;;8.18;1.30;;;18.00;99.90;;;;;;4998662;28;264085;-80
2022/07/10 11:51:37;;;;;;;9.13;1.60;;;18.00;99.90;;;;;;4956180;28;196718;-79
2022/07/10 11:54:10;;;;;;;8.32;1.60;;;18.00;99.90;;;;;;5005159;28;20525;-79
2022/07/10 11:56:41;;;;;;;8.73;1.83;;;18.10;99.90;;;;;;4923058;28;206538;-80
2022/07/10 11:59:09;;;;;;;11.13;1.80;;;17.90;99.90;;;;;;5002652;28;268101;-80
2022/07/10 12:01:49;;;;;;;11.02;1.83;;;17.80;99.90;;;;;;4962664;28;204991;-80
2022/07/10 12:04:17;;;;;;;8.93;1.53;;;17.70;99.90;;;;;;4959462;28;247476;-80
2022/07/10 12:06:46;;;;;;;7.97;1.63;;;17.40;99.90;;;;;;4957474;28;204435;-80
2022/07/10 12:09:14;;;;;;;8.50;1.70;;;17.20;99.90;;;;;;4987344;28;262997;-80
2022/07/10 12:11:43;;;;;;;9.35;1.70;;;17.30;99.90;;;;;;4986328;28;181294;-81
2022/07/10 12:14:18;;;;;;;9.82;1.73;;;17.20;99.90;;;;;;5028664;28;256020;-81
2022/07/10 12:16:49;;;;;;;8.65;1.67;;;17.20;99.90;;;;;;4953453;28;206133;-81
2022/07/10 12:19:16;;;;;;;9.70;2.07;;;17.20;99.90;;;;;;4995208;28;252128;-80
2022/07/10 12:21:46;;;;;;;9.75;2.10;;;17.40;99.90;;;;;;4977777;28;206355;-81
2022/07/10 12:24:16;;;;;;;12.60;1.92;;;17.40;99.90;;;;;;4987185;28;249463;-81
2022/07/10 12:26:44;;;;;;;8.18;1.80;;;17.20;99.90;;;;;;4970998;28;213030;-81
2022/07/10 12:29:24;;;;;;;9.15;2.10;;;17.30;99.90;;;;;;5000212;28;267835;-80
2022/07/10 12:31:52;;;;;;;11.40;2.00;;;17.20;99.90;;;;;;4974441;28;205612;-81
2022/07/10 12:34:19;;;;;;;11.63;1.65;;;17.30;99.90;;;;;;4985454;28;254728;-80
2022/07/10 12:36:49;;;;;;;11.15;1.73;;;17.40;99.90;;;;;;4961238;28;209649;-80
2022/07/10 12:39:21;;;;;;;12.98;2.20;;;17.40;99.90;;;;;;5001593;28;272322;-81
2022/07/10 12:42:04;;;;;;;12.68;1.90;;;17.60;99.90;;;;;;4954326;28;201077;-81
2022/07/10 12:44:47;;;;;;;10.45;1.70;;;17.90;99.90;;;;;;5005032;28;249424;-81
2022/07/10 12:47:16;;;;;;;9.18;1.63;;;18.10;99.90;;;;;;4968223;28;203441;-81
2022/07/10 12:50:02;;;;;;;8.43;1.58;;;17.90;99.90;;;;;;5012259;28;122097;-80